createdAt,value
2022-11-18T12:26:36.324Z,22592.00
2022-11-18T12:27:36.277Z,20128.00
2022-11-18T12:28:36.268Z,17088.00
2022-11-18T12:29:36.254Z,16416.00
2022-11-18T12:30:36.210Z,13516.00
2022-11-18T12:31:36.224Z,13844.00
2022-11-18T12:38:45.888Z,11448.00
2022-11-18T12:39:45.834Z,11144.00
2022-11-18T12:40:51.829Z,11720.00
2022-11-18T12:41:45.796Z,12356.00
2022-11-18T12:42:45.776Z,13920.00
2022-11-18T12:43:45.781Z,13860.00
2022-11-18T12:44:45.744Z,12100.00
2022-11-18T12:45:45.755Z,12824.00
2022-11-18T12:46:45.933Z,12516.00
2022-11-18T12:47:45.687Z,14316.00
2022-11-18T12:48:45.681Z,16160.00
2022-11-18T12:49:45.668Z,18880.00
2022-11-18T12:50:45.662Z,17248.00
2022-11-18T12:51:45.640Z,13580.00
2022-11-18T12:52:45.608Z,13384.00
2022-11-18T12:53:45.576Z,15264.00
2022-11-18T12:54:45.552Z,11180.00
2022-11-18T12:56:21.396Z,17120.00
2022-11-18T12:57:21.400Z,16512.00
2022-11-18T12:58:21.367Z,15520.00
2022-11-18T13:02:57.309Z,21248.00
2022-11-18T13:03:57.277Z,17728.00
2022-11-18T13:04:57.258Z,14560.00
2022-11-18T13:05:57.250Z,13892.00
2022-11-18T13:06:57.290Z,11664.00
2022-11-18T13:07:57.196Z,10400.00
2022-11-18T13:12:04.452Z,9796.00
2022-11-18T13:13:04.381Z,10416.00
2022-11-18T13:14:04.359Z,11236.00
2022-11-18T13:15:04.355Z,11848.00
2022-11-18T13:16:04.316Z,11780.00
2022-11-18T13:17:04.324Z,11612.00
2022-11-18T13:18:04.297Z,11368.00
2022-11-18T13:19:04.289Z,11260.00
2022-11-18T13:20:04.266Z,11788.00
2022-11-18T13:21:04.236Z,12376.00
2022-11-18T13:22:04.231Z,13016.00
2022-11-18T13:23:04.229Z,13692.00
2022-11-18T13:24:04.197Z,13216.00
2022-11-18T13:25:04.189Z,10916.00
2022-11-18T13:26:04.141Z,10032.00
